Time;durP1;ratioP1;P1;durP2;ratioP2;P2;SDS_P1;SDS_P2;PMS_P1;PMS_P2;Temp;Humidity;BMP_temperature;BMP_pressure;BME280_temperature;BME280_humidity;BME280_pressure;Samples;Min_cycle;Max_cycle;Signal;HPM_P1;HPM_P2
2023/11/28 00:02:19;;;;;;;2.88;2.38;;;7.70;77.60;;;;;;5033079;28;20033;-80
2023/11/28 00:04:45;;;;;;;5.10;2.75;;;7.70;77.80;;;;;;5036407;28;20878;-80
2023/11/28 00:07:11;;;;;;;3.25;2.35;;;7.70;78.00;;;;;;5037259;28;20049;-81
2023/11/28 00:09:37;;;;;;;4.50;2.30;;;7.70;78.00;;;;;;5035067;28;20060;-82
2023/11/28 00:12:04;;;;;;;2.58;2.10;;;7.70;77.80;;;;;;5036063;28;20511;-79
2023/11/28 00:14:30;;;;;;;3.30;2.20;;;7.70;77.90;;;;;;5035767;28;20067;-79
2023/11/28 00:16:56;;;;;;;3.08;2.10;;;7.70;78.00;;;;;;5035379;28;20052;-80
2023/11/28 00:19:23;;;;;;;2.72;2.45;;;7.70;77.60;;;;;;5034154;28;20492;-79
2023/11/28 00:21:49;;;;;;;2.17;1.98;;;7.70;77.50;;;;;;5036365;28;20037;-78
2023/11/28 00:24:15;;;;;;;3.53;2.28;;;7.70;77.80;;;;;;5035516;28;20041;-78
2023/11/28 00:26:41;;;;;;;2.83;2.45;;;7.70;77.60;;;;;;5035276;28;20029;-80
2023/11/28 00:29:08;;;;;;;3.53;2.40;;;7.70;77.20;;;;;;5035020;28;20061;-79
2023/11/28 00:31:34;;;;;;;3.13;2.30;;;7.70;77.50;;;;;;5036352;28;20476;-79
2023/11/28 00:34:00;;;;;;;3.15;2.13;;;7.70;77.40;;;;;;5039146;28;20080;-80
2023/11/28 00:36:26;;;;;;;3.00;2.40;;;7.70;77.00;;;;;;5033471;28;20076;-79
2023/11/28 00:38:52;;;;;;;2.60;2.13;;;7.70;77.20;;;;;;5018628;28;20052;-79
2023/11/28 00:41:19;;;;;;;3.13;2.20;;;7.70;76.90;;;;;;5035064;28;20044;-79
2023/11/28 00:43:45;;;;;;;1.92;1.83;;;7.70;76.80;;;;;;5035392;28;20380;-79
2023/11/28 00:46:13;;;;;;;2.45;2.17;;;7.70;77.00;;;;;;5034430;28;20041;-79
2023/11/28 00:48:39;;;;;;;2.42;2.22;;;7.70;76.90;;;;;;5035233;28;20499;-79
2023/11/28 00:51:06;;;;;;;3.30;2.40;;;7.70;77.20;;;;;;5035584;28;20056;-78
2023/11/28 00:53:32;;;;;;;3.35;2.20;;;7.60;77.40;;;;;;5035302;28;20542;-80
2023/11/28 00:55:59;;;;;;;3.00;2.30;;;7.70;77.20;;;;;;5037505;28;20063;-78
2023/11/28 00:58:25;;;;;;;2.28;2.05;;;7.70;77.40;;;;;;5036662;28;20049;-79
2023/11/28 01:00:53;;;;;;;2.20;2.00;;;7.70;77.50;;;;;;5038836;28;20028;-80
2023/11/28 01:03:19;;;;;;;2.10;1.90;;;7.70;77.50;;;;;;5028694;28;20116;-80
2023/11/28 01:05:45;;;;;;;3.10;2.08;;;7.60;77.30;;;;;;5018415;28;20056;-80
2023/11/28 01:08:11;;;;;;;2.05;1.88;;;7.70;77.50;;;;;;5018801;28;20037;-80
2023/11/28 01:10:37;;;;;;;2.35;2.00;;;7.60;77.50;;;;;;5018300;28;20117;-79
2023/11/28 01:13:03;;;;;;;2.45;2.25;;;7.70;77.40;;;;;;5018951;28;20121;-78
2023/11/28 01:15:29;;;;;;;3.45;2.35;;;7.70;77.60;;;;;;5020252;28;20030;-79
2023/11/28 01:17:55;;;;;;;2.30;2.10;;;7.70;77.90;;;;;;5021402;28;20049;-78
2023/11/28 01:20:21;;;;;;;2.58;2.17;;;7.60;77.80;;;;;;5019013;28;20460;-79
2023/11/28 01:22:47;;;;;;;2.55;2.35;;;7.60;77.90;;;;;;5025034;28;20032;-79
2023/11/28 01:25:13;;;;;;;3.30;2.28;;;7.60;78.00;;;;;;5021673;28;20042;-81
2023/11/28 01:27:39;;;;;;;2.47;2.10;;;7.60;78.00;;;;;;5032590;28;20087;-79
2023/11/28 01:30:06;;;;;;;2.20;2.00;;;7.60;77.80;;;;;;5029782;28;20136;-81
2023/11/28 01:32:33;;;;;;;2.80;2.17;;;7.60;78.00;;;;;;4999725;28;20124;-80
2023/11/28 01:34:59;;;;;;;2.47;1.90;;;7.70;78.60;;;;;;5034197;28;20025;-81
2023/11/28 01:37:25;;;;;;;3.38;2.20;;;7.60;78.30;;;;;;4998936;28;20034;-80
2023/11/28 01:39:51;;;;;;;2.83;2.13;;;7.70;78.20;;;;;;4999605;28;20036;-80
2023/11/28 01:42:17;;;;;;;2.25;2.05;;;7.70;78.30;;;;;;5017127;28;20088;-79
2023/11/28 01:44:45;;;;;;;2.97;2.65;;;7.60;78.30;;;;;;5017611;28;20038;-78
2023/11/28 01:47:12;;;;;;;2.30;2.05;;;7.60;78.30;;;;;;5017922;28;20543;-78
2023/11/28 01:49:38;;;;;;;3.17;2.20;;;7.60;78.30;;;;;;5021077;28;20060;-78
2023/11/28 01:52:06;;;;;;;3.80;2.38;;;7.60;78.40;;;;;;5033222;28;20071;-78
2023/11/28 01:54:32;;;;;;;2.78;2.40;;;7.70;78.50;;;;;;5038295;28;20083;-79
2023/11/28 01:56:59;;;;;;;2.55;2.20;;;7.60;78.50;;;;;;5041503;28;20029;-80
2023/11/28 01:59:25;;;;;;;3.47;2.13;;;7.60;78.10;;;;;;5035377;28;20037;-77
2023/11/28 02:01:51;;;;;;;3.40;2.30;;;7.60;78.00;;;;;;5037656;28;20059;-80
2023/11/28 02:04:17;;;;;;;2.92;2.22;;;7.60;77.80;;;;;;5036173;28;20033;-79
2023/11/28 02:06:45;;;;;;;2.75;2.15;;;7.60;77.90;;;;;;5034625;28;20030;-77
2023/11/28 02:09:11;;;;;;;3.17;2.30;;;7.60;78.10;;;;;;5036087;28;20553;-80
2023/11/28 02:11:37;;;;;;;2.20;2.00;;;7.60;78.00;;;;;;5037505;28;20442;-79
2023/11/28 02:14:04;;;;;;;3.17;2.17;;;7.60;78.10;;;;;;5037059;28;20034;-79
2023/11/28 02:16:30;;;;;;;2.38;2.17;;;7.60;78.00;;;;;;5018201;28;20036;-79
2023/11/28 02:18:56;;;;;;;2.38;1.90;;;7.60;78.00;;;;;;5037339;28;20029;-79
2023/11/28 02:21:22;;;;;;;3.38;2.17;;;7.60;78.00;;;;;;5037276;28;20737;-78
2023/11/28 02:23:49;;;;;;;1.80;1.70;;;7.60;78.10;;;;;;5040821;28;20041;-79
2023/11/28 02:26:22;;;;;;;3.72;2.50;;;7.60;78.20;;;;;;5051970;28;20066;-79
2023/11/28 02:28:48;;;;;;;2.22;2.03;;;7.60;78.10;;;;;;5037255;28;20033;-78
2023/11/28 02:31:14;;;;;;;2.33;2.00;;;7.60;78.10;;;;;;5036518;28;20044;-79
2023/11/28 02:33:40;;;;;;;2.00;1.77;;;7.60;78.00;;;;;;5037575;28;20041;-79
2023/11/28 02:36:07;;;;;;;2.20;1.98;;;7.60;78.20;;;;;;5024467;28;20039;-78
2023/11/28 02:38:33;;;;;;;2.42;1.98;;;7.60;78.10;;;;;;5019398;28;20092;-77
2023/11/28 02:40:59;;;;;;;3.22;2.13;;;7.60;78.20;;;;;;5037595;28;20127;-78
2023/11/28 02:43:25;;;;;;;2.47;1.98;;;7.60;78.20;;;;;;5018336;28;20414;-78
2023/11/28 02:45:51;;;;;;;3.58;2.50;;;7.60;78.20;;;;;;5040820;28;20132;-79
2023/11/28 02:48:17;;;;;;;2.20;2.00;;;7.60;78.20;;;;;;5037607;28;20114;-77
2023/11/28 02:50:43;;;;;;;2.58;1.83;;;7.60;78.10;;;;;;5035231;28;20509;-78
2023/11/28 02:53:09;;;;;;;1.98;1.77;;;7.60;78.00;;;;;;5035538;28;20044;-79
2023/11/28 02:55:35;;;;;;;2.80;1.90;;;7.60;78.00;;;;;;5035495;28;20025;-78
2023/11/28 02:58:01;;;;;;;1.80;1.55;;;7.60;78.10;;;;;;5037288;28;20052;-78
2023/11/28 03:00:27;;;;;;;3.13;2.08;;;7.60;78.00;;;;;;5036530;28;20036;-77
2023/11/28 03:02:53;;;;;;;4.13;2.65;;;7.60;78.10;;;;;;5035426;28;20040;-79
2023/11/28 03:05:20;;;;;;;2.38;1.70;;;7.60;78.10;;;;;;5038143;28;20063;-78
2023/11/28 03:07:46;;;;;;;2.45;2.00;;;7.60;78.10;;;;;;5034516;28;20061;-79
2023/11/28 03:10:12;;;;;;;1.65;1.55;;;7.60;78.00;;;;;;5035600;28;20037;-78
2023/11/28 03:12:38;;;;;;;1.73;1.55;;;7.60;77.90;;;;;;5034459;28;20057;-78
2023/11/28 03:15:04;;;;;;;2.10;1.90;;;7.50;78.00;;;;;;5036400;28;20068;-78
2023/11/28 03:17:31;;;;;;;1.95;1.80;;;7.50;78.00;;;;;;5034440;28;20512;-78
2023/11/28 03:19:57;;;;;;;2.30;2.10;;;7.60;77.90;;;;;;5036605;28;20110;-78
2023/11/28 03:22:24;;;;;;;2.22;1.90;;;7.60;77.80;;;;;;5050949;28;20484;-78
2023/11/28 03:24:51;;;;;;;2.00;1.80;;;7.50;77.90;;;;;;5036550;28;20033;-80
2023/11/28 03:27:18;;;;;;;2.50;2.00;;;7.50;77.90;;;;;;5032908;28;20080;-80
2023/11/28 03:29:44;;;;;;;2.38;1.85;;;7.50;77.80;;;;;;5033048;28;20040;-79
2023/11/28 03:32:10;;;;;;;2.22;2.00;;;7.50;77.70;;;;;;5038693;28;20029;-80
2023/11/28 03:34:40;;;;;;;2.20;1.85;;;7.50;77.70;;;;;;5035143;28;20029;-80
2023/11/28 03:37:07;;;;;;;2.50;1.88;;;7.50;77.80;;;;;;5033973;28;20392;-80
2023/11/28 03:39:33;;;;;;;3.90;2.13;;;7.50;77.70;;;;;;5035999;28;20395;-79
2023/11/28 03:41:59;;;;;;;2.03;1.83;;;7.50;77.60;;;;;;5033824;28;20033;-82
2023/11/28 03:44:25;;;;;;;2.13;1.92;;;7.50;77.70;;;;;;5035128;28;20029;-78
2023/11/28 03:46:52;;;;;;;2.40;2.05;;;7.50;77.50;;;;;;5035682;28;20033;-82
2023/11/28 03:49:18;;;;;;;2.35;1.80;;;7.50;77.50;;;;;;5032856;28;20034;-81
2023/11/28 03:51:44;;;;;;;3.70;2.40;;;7.50;77.60;;;;;;5018410;28;20167;-80
2023/11/28 03:54:10;;;;;;;2.60;2.10;;;7.50;77.70;;;;;;5034579;28;20157;-84
2023/11/28 03:56:37;;;;;;;5.00;2.20;;;7.50;77.50;;;;;;5031381;28;20637;-80
2023/11/28 03:59:03;;;;;;;2.92;2.10;;;7.50;77.40;;;;;;5015484;28;20053;-81
2023/11/28 04:01:29;;;;;;;2.60;2.30;;;7.50;77.40;;;;;;5013456;28;20034;-80
2023/11/28 04:03:56;;;;;;;2.25;2.05;;;7.50;77.40;;;;;;5012034;28;20554;-81
2023/11/28 04:06:22;;;;;;;2.45;2.10;;;7.50;77.40;;;;;;5032380;28;20033;-80
2023/11/28 04:08:51;;;;;;;3.33;2.25;;;7.50;77.40;;;;;;5038016;28;20025;-81
2023/11/28 04:11:18;;;;;;;2.22;1.92;;;7.50;77.60;;;;;;5035449;28;20087;-83
2023/11/28 04:13:44;;;;;;;2.38;2.13;;;7.50;77.50;;;;;;5017486;28;20040;-82
2023/11/28 04:16:16;;;;;;;3.63;2.42;;;7.50;77.50;;;;;;5020935;28;20041;-85
2023/11/28 04:18:42;;;;;;;3.60;2.20;;;7.50;77.40;;;;;;5017893;28;20072;-82
2023/11/28 04:21:15;;;;;;;2.65;2.25;;;7.50;77.30;;;;;;5037387;28;20400;-83
2023/11/28 04:23:45;;;;;;;2.95;2.30;;;7.50;77.20;;;;;;5034681;28;20928;-84
2023/11/28 04:26:13;;;;;;;2.88;2.10;;;7.50;77.10;;;;;;4995622;28;20079;-84
2023/11/28 04:28:39;;;;;;;3.55;2.60;;;7.50;77.20;;;;;;4999919;28;20526;-87
2023/11/28 04:31:16;;;;;;;2.28;2.05;;;7.50;77.10;;;;;;5034825;28;20033;-86
2023/11/28 04:33:44;;;;;;;5.07;2.20;;;7.50;77.10;;;;;;5010311;28;20048;-81
2023/11/28 04:36:12;;;;;;;3.95;2.53;;;7.50;77.10;;;;;;5020011;28;20137;-82
2023/11/28 04:38:38;;;;;;;4.60;2.38;;;7.50;77.00;;;;;;5034061;28;20071;-84
2023/11/28 04:41:05;;;;;;;3.05;2.30;;;7.50;77.00;;;;;;5034341;28;20535;-83
2023/11/28 04:43:31;;;;;;;2.88;2.35;;;7.50;77.00;;;;;;5003886;28;20033;-82
2023/11/28 04:45:57;;;;;;;2.72;1.95;;;7.40;76.90;;;;;;5035954;28;20033;-80
2023/11/28 04:48:23;;;;;;;3.47;2.50;;;7.40;76.80;;;;;;5032847;28;20033;-79
2023/11/28 04:50:49;;;;;;;3.05;2.50;;;7.40;77.00;;;;;;5033499;28;20122;-80
2023/11/28 04:53:15;;;;;;;3.58;2.10;;;7.50;76.90;;;;;;5035587;28;20579;-80
2023/11/28 04:55:41;;;;;;;4.15;2.33;;;7.40;76.90;;;;;;5036351;28;20025;-82
2023/11/28 04:58:07;;;;;;;3.22;2.03;;;7.50;76.80;;;;;;5030527;28;20327;-80
2023/11/28 05:00:33;;;;;;;3.20;2.50;;;7.40;77.00;;;;;;5037296;28;20033;-83
2023/11/28 05:02:59;;;;;;;2.58;1.90;;;7.40;76.90;;;;;;5020737;28;20504;-83
2023/11/28 05:05:25;;;;;;;2.83;2.30;;;7.40;76.80;;;;;;5035862;28;20037;-83
2023/11/28 05:07:51;;;;;;;3.60;2.17;;;7.40;76.60;;;;;;5020893;28;20072;-83
2023/11/28 05:10:17;;;;;;;3.83;2.17;;;7.40;76.50;;;;;;5020605;28;20131;-84
2023/11/28 05:12:43;;;;;;;2.60;2.40;;;7.40;76.60;;;;;;5019314;28;20180;-82
2023/11/28 05:15:09;;;;;;;2.63;1.90;;;7.40;76.60;;;;;;5012665;28;20059;-82
2023/11/28 05:17:35;;;;;;;3.50;2.38;;;7.40;76.40;;;;;;4994879;28;20519;-81
2023/11/28 05:20:04;;;;;;;3.50;2.65;;;7.40;76.30;;;;;;5037983;28;20044;-83
2023/11/28 05:22:31;;;;;;;3.55;2.40;;;7.40;76.60;;;;;;5053214;28;20029;-84
2023/11/28 05:24:58;;;;;;;3.42;2.35;;;7.40;76.30;;;;;;5019095;28;20029;-81
2023/11/28 05:27:24;;;;;;;3.88;3.08;;;7.40;76.40;;;;;;5020165;28;20052;-83
2023/11/28 05:29:50;;;;;;;3.25;2.47;;;7.40;76.20;;;;;;5003704;28;20438;-84
2023/11/28 05:32:16;;;;;;;2.92;2.63;;;7.40;76.20;;;;;;5035460;28;20041;-81
2023/11/28 05:34:43;;;;;;;2.90;2.38;;;7.40;76.30;;;;;;4983761;28;20108;-81
2023/11/28 05:37:09;;;;;;;4.28;3.03;;;7.40;76.00;;;;;;5015837;28;20096;-82
2023/11/28 05:39:37;;;;;;;4.25;2.63;;;7.40;75.90;;;;;;5020028;28;20037;-83
2023/11/28 05:42:03;;;;;;;3.70;2.58;;;7.40;75.90;;;;;;5001106;28;20132;-82
2023/11/28 05:44:29;;;;;;;3.53;2.80;;;7.40;75.90;;;;;;5036601;28;20029;-82
2023/11/28 05:46:55;;;;;;;3.30;2.53;;;7.40;76.10;;;;;;5008026;28;20033;-84
2023/11/28 05:49:22;;;;;;;3.95;2.20;;;7.40;76.00;;;;;;5019336;28;20140;-81
2023/11/28 05:51:48;;;;;;;3.35;2.80;;;7.30;75.80;;;;;;5039610;28;20501;-83
2023/11/28 05:54:14;;;;;;;3.33;2.55;;;7.40;76.00;;;;;;4985737;28;20084;-84
2023/11/28 05:56:42;;;;;;;3.47;2.60;;;7.30;75.90;;;;;;5014671;28;20381;-84
2023/11/28 05:59:10;;;;;;;3.80;2.50;;;7.40;75.90;;;;;;4987341;28;20653;-85
2023/11/28 06:01:56;;;;;;;3.72;2.50;;;7.30;76.00;;;;;;5004900;28;20456;-81
2023/11/28 06:04:22;;;;;;;4.95;2.33;;;7.40;75.90;;;;;;5015586;28;20044;-81
2023/11/28 06:06:48;;;;;;;2.58;2.20;;;7.30;75.80;;;;;;5017108;28;20038;-80
2023/11/28 06:09:15;;;;;;;4.80;2.40;;;7.40;75.90;;;;;;5016950;28;20061;-80
2023/11/28 06:11:41;;;;;;;3.85;2.35;;;7.30;75.90;;;;;;5021150;28;20037;-85
2023/11/28 06:14:07;;;;;;;3.88;2.40;;;7.30;76.00;;;;;;5009612;28;20493;-77
2023/11/28 06:16:33;;;;;;;4.00;2.47;;;7.30;76.10;;;;;;5035298;28;20049;-79
2023/11/28 06:18:59;;;;;;;2.85;2.13;;;7.30;76.10;;;;;;5024334;28;20388;-81
2023/11/28 06:21:25;;;;;;;5.07;2.63;;;7.30;76.10;;;;;;5015047;28;20042;-82
2023/11/28 06:23:51;;;;;;;2.90;2.35;;;7.30;76.00;;;;;;5006877;28;20060;-80
2023/11/28 06:26:17;;;;;;;6.78;3.03;;;7.30;75.90;;;;;;5038151;28;20424;-80
2023/11/28 06:28:43;;;;;;;6.05;2.95;;;7.30;76.20;;;;;;5016044;28;20029;-79
2023/11/28 06:31:09;;;;;;;3.70;2.60;;;7.30;76.10;;;;;;5033277;28;20079;-78
2023/11/28 06:33:36;;;;;;;4.40;2.58;;;7.30;76.30;;;;;;5034707;28;20044;-82
2023/11/28 06:36:03;;;;;;;4.65;2.58;;;7.30;76.30;;;;;;4999797;28;21033;-81
2023/11/28 06:38:29;;;;;;;3.47;2.65;;;7.30;76.30;;;;;;5051343;28;20032;-81
2023/11/28 06:40:55;;;;;;;6.55;3.00;;;7.30;76.20;;;;;;5019517;28;20357;-80
2023/11/28 06:43:21;;;;;;;4.78;3.13;;;7.30;76.10;;;;;;5030864;28;20082;-81
2023/11/28 06:45:47;;;;;;;5.32;3.35;;;7.30;76.10;;;;;;5034921;28;20040;-81
2023/11/28 06:48:13;;;;;;;4.80;2.30;;;7.30;76.00;;;;;;5034802;28;20033;-82
2023/11/28 06:50:39;;;;;;;3.70;2.40;;;7.30;76.00;;;;;;5029562;28;20450;-80
2023/11/28 06:53:05;;;;;;;5.18;2.72;;;7.30;76.10;;;;;;5014320;28;20045;-81
2023/11/28 06:55:31;;;;;;;4.28;2.80;;;7.30;75.90;;;;;;5035007;28;20041;-81
2023/11/28 06:57:57;;;;;;;4.50;2.70;;;7.30;75.90;;;;;;5037139;28;20049;-81
2023/11/28 07:00:23;;;;;;;5.55;2.80;;;7.30;75.90;;;;;;5031095;28;20111;-79
2023/11/28 07:02:50;;;;;;;4.57;2.40;;;7.30;75.70;;;;;;5037528;28;20037;-77
2023/11/28 07:05:16;;;;;;;4.80;2.60;;;7.30;75.80;;;;;;5033487;28;20492;-77
2023/11/28 07:07:42;;;;;;;3.40;2.33;;;7.30;75.80;;;;;;5036456;28;20040;-80
2023/11/28 07:10:09;;;;;;;5.00;2.50;;;7.30;75.80;;;;;;5036354;28;20037;-82
2023/11/28 07:12:35;;;;;;;3.58;2.60;;;7.30;76.00;;;;;;5035119;28;20082;-81
2023/11/28 07:15:02;;;;;;;3.00;2.50;;;7.30;75.80;;;;;;5051057;28;20028;-82
2023/11/28 07:17:28;;;;;;;4.43;2.33;;;7.30;75.90;;;;;;5035183;28;20055;-79
2023/11/28 07:19:54;;;;;;;4.03;2.65;;;7.30;75.90;;;;;;5034929;28;20026;-78
2023/11/28 07:22:21;;;;;;;4.03;2.65;;;7.30;75.90;;;;;;5036116;28;20116;-80
2023/11/28 07:24:47;;;;;;;5.90;3.30;;;7.30;75.70;;;;;;5034304;28;20399;-78
2023/11/28 07:27:13;;;;;;;5.10;2.80;;;7.30;75.80;;;;;;5034977;28;20030;-82
2023/11/28 07:29:39;;;;;;;3.75;2.80;;;7.30;75.80;;;;;;5017447;28;20039;-81
2023/11/28 07:32:06;;;;;;;4.65;2.60;;;7.30;75.70;;;;;;5019384;28;20068;-79
2023/11/28 07:34:34;;;;;;;4.57;2.38;;;7.30;76.00;;;;;;5034171;28;20053;-81
2023/11/28 07:37:00;;;;;;;6.07;2.58;;;7.30;75.90;;;;;;5033265;28;20586;-80
2023/11/28 07:39:27;;;;;;;4.53;2.63;;;7.30;76.10;;;;;;5032726;28;20151;-80
2023/11/28 07:41:53;;;;;;;4.28;2.72;;;7.30;76.30;;;;;;5033831;28;20033;-80
2023/11/28 07:44:20;;;;;;;5.53;2.40;;;7.30;76.20;;;;;;5031968;28;20383;-83
2023/11/28 07:46:46;;;;;;;3.58;2.33;;;7.30;76.50;;;;;;5011247;28;20036;-82
2023/11/28 07:49:12;;;;;;;4.57;3.05;;;7.30;76.50;;;;;;5014169;28;20180;-82
2023/11/28 07:51:41;;;;;;;3.78;2.78;;;7.30;76.70;;;;;;5010000;28;20136;-82
2023/11/28 07:54:07;;;;;;;3.20;2.25;;;7.30;76.80;;;;;;5009250;28;20687;-83
2023/11/28 07:56:33;;;;;;;4.88;2.70;;;7.30;76.80;;;;;;5011262;28;20057;-84
2023/11/28 07:58:59;;;;;;;4.72;2.90;;;7.30;77.00;;;;;;4993501;28;20084;-83
2023/11/28 08:01:26;;;;;;;11.48;3.00;;;7.30;77.20;;;;;;4998777;28;20029;-84
2023/11/28 08:03:52;;;;;;;4.25;2.10;;;7.30;77.20;;;;;;5032160;28;20480;-84
2023/11/28 08:06:19;;;;;;;4.88;2.00;;;7.30;77.20;;;;;;5030121;28;20037;-81
2023/11/28 08:08:45;;;;;;;4.72;2.60;;;7.30;77.10;;;;;;5032634;28;20059;-82
2023/11/28 08:11:12;;;;;;;3.80;2.60;;;7.30;77.10;;;;;;5033644;28;20041;-83
2023/11/28 08:13:39;;;;;;;5.45;3.10;;;7.30;77.10;;;;;;5002090;28;20037;-81
2023/11/28 08:16:06;;;;;;;5.25;2.83;;;7.40;77.10;;;;;;5014477;28;20551;-82
2023/11/28 08:18:32;;;;;;;2.90;2.30;;;7.30;77.10;;;;;;5014278;28;20033;-80
2023/11/28 08:21:01;;;;;;;2.92;2.38;;;7.40;77.00;;;;;;5001116;28;20079;-84
2023/11/28 08:23:28;;;;;;;4.13;2.67;;;7.30;77.00;;;;;;4977945;28;20057;-82
2023/11/28 08:25:54;;;;;;;3.42;2.42;;;7.40;77.00;;;;;;4998408;28;20037;-82
2023/11/28 08:28:23;;;;;;;3.20;2.42;;;7.40;77.00;;;;;;4996905;28;20034;-82
2023/11/28 08:30:50;;;;;;;6.05;2.78;;;7.40;77.00;;;;;;5012802;28;20377;-78
2023/11/28 08:33:16;;;;;;;3.55;2.60;;;7.40;76.80;;;;;;5014323;28;20069;-80
2023/11/28 08:35:42;;;;;;;6.55;2.78;;;7.40;76.80;;;;;;5013081;28;20074;-76
2023/11/28 08:38:08;;;;;;;5.78;3.67;;;7.40;77.20;;;;;;5013569;28;20419;-77
2023/11/28 08:40:34;;;;;;;6.28;4.05;;;7.30;70.20;;;;;;5014364;28;20041;-77
2023/11/28 08:43:00;;;;;;;8.85;4.22;;;7.00;65.70;;;;;;5013350;28;20056;-76
2023/11/28 08:45:26;;;;;;;5.13;3.60;;;6.80;63.30;;;;;;5013945;28;21962;-77
2023/11/28 08:47:52;;;;;;;6.20;4.30;;;6.70;63.10;;;;;;5014324;28;20041;-76
2023/11/28 08:50:18;;;;;;;5.80;3.65;;;6.60;62.30;;;;;;5013213;28;20040;-76
2023/11/28 08:52:44;;;;;;;5.97;4.25;;;6.40;60.50;;;;;;5014339;28;20864;-76
2023/11/28 08:55:10;;;;;;;6.47;4.22;;;6.10;59.80;;;;;;5002764;28;20100;-76
2023/11/28 08:57:36;;;;;;;6.90;4.35;;;6.00;59.40;;;;;;5033282;28;20164;-77
2023/11/28 09:00:04;;;;;;;6.78;4.78;;;5.80;60.00;;;;;;5033295;28;20807;-76
2023/11/28 09:02:31;;;;;;;5.25;3.92;;;5.70;60.30;;;;;;5035063;28;20037;-77
2023/11/28 09:04:57;;;;;;;7.65;4.75;;;5.60;59.90;;;;;;5036298;28;20030;-76
2023/11/28 09:07:24;;;;;;;6.75;3.90;;;5.50;59.70;;;;;;5049158;28;20040;-78
2023/11/28 09:09:50;;;;;;;8.23;5.88;;;5.50;61.80;;;;;;5014653;28;20036;-78
2023/11/28 09:12:17;;;;;;;10.70;7.07;;;5.60;64.40;;;;;;5032455;28;20045;-79
2023/11/28 09:14:45;;;;;;;12.75;8.85;;;5.70;66.30;;;;;;5033832;28;20041;-80
2023/11/28 09:17:11;;;;;;;11.63;9.40;;;5.80;67.90;;;;;;5035717;28;20041;-79
2023/11/28 09:19:37;;;;;;;11.82;8.75;;;5.90;69.50;;;;;;5038553;28;20033;-79
2023/11/28 09:22:05;;;;;;;11.27;8.10;;;6.00;70.50;;;;;;5038321;28;20045;-80
2023/11/28 09:24:31;;;;;;;10.30;7.95;;;6.10;70.90;;;;;;5036197;28;20029;-79
2023/11/28 09:27:01;;;;;;;10.52;6.97;;;6.20;71.20;;;;;;5038399;28;20049;-81
2023/11/28 09:29:27;;;;;;;8.98;6.50;;;6.30;71.40;;;;;;5019547;28;20043;-81
2023/11/28 09:31:54;;;;;;;8.38;6.43;;;6.30;71.40;;;;;;5038596;28;20037;-80
2023/11/28 09:34:20;;;;;;;8.93;6.68;;;6.30;71.40;;;;;;5037926;28;20043;-79
2023/11/28 09:36:46;;;;;;;7.47;5.88;;;6.50;71.40;;;;;;5023459;28;20064;-79
2023/11/28 09:39:13;;;;;;;8.45;5.85;;;6.50;71.20;;;;;;5032934;28;20132;-79
2023/11/28 09:41:44;;;;;;;7.03;5.45;;;6.50;71.20;;;;;;5017856;28;20133;-84
2023/11/28 09:44:15;;;;;;;7.53;5.50;;;6.60;71.30;;;;;;5019212;28;20032;-80
2023/11/28 09:46:47;;;;;;;6.68;4.93;;;6.70;71.90;;;;;;5017867;28;20025;-81
2023/11/28 09:49:17;;;;;;;5.88;4.53;;;6.70;71.30;;;;;;5016708;28;20497;-79
2023/11/28 09:51:46;;;;;;;8.55;5.43;;;6.80;71.10;;;;;;5016378;28;20556;-80
2023/11/28 09:54:16;;;;;;;8.80;4.63;;;6.80;71.50;;;;;;5019280;28;20496;-84
2023/11/28 09:56:46;;;;;;;6.60;4.50;;;6.90;71.40;;;;;;5007528;28;20204;-82
2023/11/28 09:59:15;;;;;;;7.07;4.85;;;6.90;70.90;;;;;;5034909;28;20524;-82
2023/11/28 10:01:45;;;;;;;7.05;4.68;;;6.90;70.40;;;;;;5000287;28;20029;-82
2023/11/28 10:04:12;;;;;;;5.40;4.25;;;7.00;69.90;;;;;;5019329;28;20104;-83
2023/11/28 10:06:43;;;;;;;8.40;4.65;;;7.00;69.50;;;;;;5010789;28;20034;-82
2023/11/28 10:09:11;;;;;;;5.20;4.00;;;7.00;69.00;;;;;;5016385;28;20515;-81
2023/11/28 10:11:38;;;;;;;5.10;4.15;;;7.00;68.70;;;;;;4991948;28;20045;-81
2023/11/28 10:14:05;;;;;;;5.32;3.95;;;7.00;68.30;;;;;;5005095;28;20488;-81
2023/11/28 10:16:44;;;;;;;5.35;3.58;;;7.00;68.10;;;;;;5027489;28;20129;-83
2023/11/28 10:19:10;;;;;;;5.82;3.88;;;7.00;67.80;;;;;;5003132;28;20426;-80
2023/11/28 10:21:38;;;;;;;5.05;3.42;;;7.10;67.70;;;;;;5004927;28;20068;-81
2023/11/28 10:24:09;;;;;;;4.53;3.20;;;7.10;67.60;;;;;;5006176;28;20128;-80
2023/11/28 10:26:38;;;;;;;4.57;3.50;;;7.00;67.30;;;;;;5027949;28;20115;-80
2023/11/28 10:29:06;;;;;;;3.90;3.30;;;7.10;67.30;;;;;;5037564;28;20048;-82
2023/11/28 10:31:39;;;;;;;4.32;2.92;;;7.10;67.40;;;;;;5021154;28;20034;-79
2023/11/28 10:34:09;;;;;;;4.80;3.60;;;7.10;67.30;;;;;;5010353;28;20030;-81
2023/11/28 10:36:42;;;;;;;7.07;3.80;;;7.10;67.10;;;;;;5004724;28;20260;-82
2023/11/28 10:39:10;;;;;;;5.50;3.47;;;7.10;67.10;;;;;;5033708;28;20078;-82
2023/11/28 10:41:38;;;;;;;7.20;3.55;;;7.10;67.10;;;;;;5029325;28;20042;-80
2023/11/28 10:44:04;;;;;;;5.40;3.80;;;7.10;67.00;;;;;;5014229;28;20927;-79
2023/11/28 10:46:34;;;;;;;4.32;3.50;;;7.10;67.30;;;;;;5032692;28;20037;-83
2023/11/28 10:49:01;;;;;;;4.55;3.35;;;7.10;67.40;;;;;;5008031;28;20075;-83
2023/11/28 10:51:31;;;;;;;3.72;3.15;;;7.10;67.20;;;;;;5032265;28;20523;-82
2023/11/28 10:54:08;;;;;;;5.25;3.55;;;7.10;67.40;;;;;;5019560;28;20091;-82
2023/11/28 10:56:56;;;;;;;4.38;3.10;;;7.10;67.40;;;;;;5032971;28;20041;-81
2023/11/28 10:59:35;;;;;;;5.60;3.30;;;7.10;67.60;;;;;;5032399;28;20412;-83
2023/11/28 11:02:04;;;;;;;5.38;3.00;;;7.10;67.50;;;;;;5019773;28;20062;-82
2023/11/28 11:04:31;;;;;;;5.28;3.42;;;7.10;67.30;;;;;;5015526;28;20036;-82
2023/11/28 11:06:57;;;;;;;4.82;3.10;;;7.10;67.60;;;;;;5008650;28;20041;-81
2023/11/28 11:09:24;;;;;;;4.30;3.45;;;7.10;67.60;;;;;;5049229;28;20029;-81
2023/11/28 11:11:52;;;;;;;4.25;3.08;;;7.10;67.10;;;;;;5032459;28;20037;-81
2023/11/28 11:14:48;;;;;;;4.40;3.05;;;7.10;67.20;;;;;;5049802;28;20106;-79
2023/11/28 11:17:27;;;;;;;4.63;3.35;;;7.10;67.20;;;;;;5049795;28;20116;-80
2023/11/28 11:19:56;;;;;;;5.28;3.28;;;7.10;67.00;;;;;;5033309;28;20036;-79
2023/11/28 11:22:26;;;;;;;3.08;2.70;;;7.20;67.00;;;;;;5033789;28;20613;-78
2023/11/28 11:24:53;;;;;;;3.92;2.97;;;7.10;66.70;;;;;;5035671;28;20067;-78
2023/11/28 11:27:19;;;;;;;4.75;3.20;;;7.20;66.60;;;;;;5033207;28;20391;-77
2023/11/28 11:29:47;;;;;;;4.30;3.00;;;7.10;66.50;;;;;;5033236;28;20033;-77
2023/11/28 11:32:16;;;;;;;3.80;2.78;;;7.10;66.30;;;;;;5033250;28;20033;-80
2023/11/28 11:34:50;;;;;;;3.05;2.55;;;7.20;66.20;;;;;;5031049;28;20037;-80
2023/11/28 11:37:40;;;;;;;4.03;3.10;;;7.10;66.30;;;;;;5034352;28;20064;-78
2023/11/28 11:40:07;;;;;;;4.65;2.75;;;7.20;66.00;;;;;;5033715;28;20033;-79
2023/11/28 11:42:33;;;;;;;5.35;2.67;;;7.10;65.50;;;;;;5021036;28;20029;-81
2023/11/28 11:45:05;;;;;;;5.07;2.83;;;7.10;65.40;;;;;;5032725;28;20051;-77
2023/11/28 11:47:33;;;;;;;4.63;3.00;;;7.10;65.40;;;;;;5032714;28;20033;-77
2023/11/28 11:50:01;;;;;;;3.25;2.53;;;7.10;65.20;;;;;;5032461;28;20022;-77
2023/11/28 11:52:29;;;;;;;3.10;2.53;;;7.10;65.30;;;;;;5032118;28;20045;-77
2023/11/28 11:55:05;;;;;;;2.92;2.25;;;7.10;65.20;;;;;;5033206;28;20512;-78
2023/11/28 11:57:32;;;;;;;2.95;2.50;;;7.10;65.50;;;;;;5033405;28;20135;-77
2023/11/28 11:59:59;;;;;;;4.25;2.78;;;7.10;64.90;;;;;;5032326;28;20037;-78
2023/11/28 12:02:45;;;;;;;3.83;2.38;;;7.10;65.00;;;;;;5033097;28;20709;-79
2023/11/28 12:05:13;;;;;;;4.57;2.92;;;7.10;65.00;;;;;;5021479;28;20037;-79
2023/11/28 12:07:40;;;;;;;2.95;2.60;;;7.10;64.80;;;;;;5033065;28;20049;-79
2023/11/28 12:10:11;;;;;;;2.80;2.45;;;7.10;64.80;;;;;;5031809;28;20410;-79
2023/11/28 12:12:39;;;;;;;2.58;2.38;;;7.10;64.70;;;;;;5033179;28;20128;-79
2023/11/28 12:15:06;;;;;;;4.20;2.22;;;7.10;64.80;;;;;;5028353;28;20069;-78
2023/11/28 12:17:34;;;;;;;3.40;2.80;;;7.10;65.00;;;;;;5030528;28;20084;-77
2023/11/28 12:20:01;;;;;;;3.50;2.38;;;7.10;64.80;;;;;;5034152;28;20048;-76
2023/11/28 12:22:29;;;;;;;3.90;2.90;;;7.10;64.80;;;;;;5031949;28;20033;-75
2023/11/28 12:24:55;;;;;;;4.72;2.42;;;7.10;65.00;;;;;;5031821;28;20072;-75
2023/11/28 12:27:21;;;;;;;3.17;2.45;;;7.10;64.70;;;;;;5032387;28;20509;-76
2023/11/28 12:29:49;;;;;;;3.42;2.70;;;7.10;64.70;;;;;;5031853;28;20125;-77
2023/11/28 12:32:15;;;;;;;3.33;2.42;;;7.10;65.00;;;;;;5032902;28;20041;-80
2023/11/28 12:34:41;;;;;;;4.03;2.72;;;7.00;64.80;;;;;;5030347;28;20484;-80
2023/11/28 12:37:08;;;;;;;3.45;2.60;;;7.00;64.90;;;;;;5033201;28;20037;-77
2023/11/28 12:39:34;;;;;;;3.88;2.80;;;7.00;65.00;;;;;;5032681;28;20555;-77
2023/11/28 12:42:01;;;;;;;3.50;2.80;;;7.00;64.70;;;;;;5031425;28;20033;-77
2023/11/28 12:44:33;;;;;;;3.05;2.65;;;7.00;64.90;;;;;;5033061;28;20025;-78
2023/11/28 12:47:00;;;;;;;3.88;2.85;;;7.00;64.40;;;;;;5033471;28;20087;-78
2023/11/28 12:49:27;;;;;;;4.60;3.17;;;7.00;64.50;;;;;;5011036;28;20038;-78
2023/11/28 12:51:57;;;;;;;4.20;3.05;;;7.00;64.40;;;;;;5008063;28;20105;-76
2023/11/28 12:54:25;;;;;;;2.95;2.50;;;7.00;64.30;;;;;;5013550;28;20693;-77
2023/11/28 12:56:55;;;;;;;3.63;2.58;;;7.00;64.30;;;;;;5012948;28;20030;-77
2023/11/28 12:59:22;;;;;;;4.35;2.70;;;7.00;64.40;;;;;;5013047;28;20188;-76